• Join FlightAware (Why Join?)
  • Login
  • US Flag 
10:19AM EST


 

Airport Tracker/Info


-or-


 

Live Flight TrackerFlight Track Log ✈ SWA499 ✈ 16-May-2014 ✈ KRNO - KLAX

Flight Track Log - Related Links

Times and Time Zones

All times are in EDT time to prevent confusion due to time zone crossing. See the SWA499 flight status page for this flight to view local times or setup timezone preferences in your user account.

Time Position Orientation Groundspeed Altitude Reporting Facility
EDT Latitude Longitude Course Direction KTS MPH feet Rate Location/Type
10:52PM 39.5167 -119.7667 180° South 176 203 5,500  Level Northern Cal TRACON
10:53PM 39.5667 -119.7833 346° North 223 257 7,400 2,842 Climbing Northern Cal TRACON
10:54PM 39.6333 -119.7833 360° North 270 311 10,900 3,383 Climbing Northern Cal TRACON
10:55PM 39.6606 -119.7358 53° Northeast 288 331 12,700 2,589 Climbing Oakland Center
10:56PM 39.5969 -119.6694 141° Southeast 342 394 15,000 2,262 Climbing Oakland Center
10:57PM 39.4994 -119.6567 174° South 354 407 17,300 2,537 Climbing Oakland Center
10:58PM 39.1005 -119.6333 180° South  Level FlightAware Approximate
10:58PM 39.3917 -119.6536 179° South 380 437 20,200  Level Oakland Center
10:59PM 39.2806 -119.6508 179° South 395 455 23,300 2,705 Climbing Oakland Center
11:00PM 39.1675 -119.6475 179° South 402 463 25,700 2,459 Climbing Oakland Center
11:01PM 39.0531 -119.6453 179° South 408 470 28,300 1,610 Climbing Oakland Center
11:02PM 38.9122 -119.6411 179° South 420 483 29,000 439 Climbing Oakland Center
11:03PM 38.7933 -119.6372 179° South 426 490 29,200 934 Climbing Oakland Center
11:04PM 38.6692 -119.6356 179° South 439 505 30,900 1,574 Climbing Oakland Center
11:05PM 38.5417 -119.6319 179° South 452 520 32,400 1,415 Climbing Oakland Center
11:06PM 38.4089 -119.6283 179° South 464 534 33,800 1,854 Climbing Oakland Center
11:07PM 38.2769 -119.6247 179° South 472 543 36,200 1,574 Climbing Oakland Center
11:08PM 38.1528 -119.6214 179° South 447 514 37,000 393 Climbing Oakland Center
11:09PM 38.0267 -119.6192 179° South 451 519 37,000 146 Level Oakland Center
11:10PM 37.9028 -119.6158 179° South 448 516 37,300 829 Climbing Oakland Center
11:11PM 37.7772 -119.6136 179° South 448 516 38,700 836 Climbing Oakland Center
11:12PM 37.6539 -119.6097 179° South 447 514 39,000 148 Climbing Oakland Center
11:13PM 37.5047 -119.6064 179° South 445 512 39,000  Level Oakland Center
11:14PM 37.3817 -119.6022 178° South 444 511 39,000  Level Oakland Center
11:15PM 37.2683 -119.5994 179° South 443 510 39,000  Level Oakland Center
11:16PM 37.1444 -119.5978 179° South 444 511 39,000  Level Oakland Center
11:17PM 37.0222 -119.5958 179° South 443 510 39,000  Level Oakland Center
11:18PM 36.8997 -119.6000 182° South 441 507 39,000  Level Oakland Center
11:19PM 36.7458 -119.6036 181° South 458 527 39,000  Level Oakland Center
11:20PM 36.6164 -119.6053 181° South 460 529 39,000  Level Oakland Center
11:21PM 36.4872 -119.6072 181° South 462 532 39,000  Level Oakland Center
11:22PM 36.3592 -119.6094 181° South 462 532 39,000  Level Oakland Center
11:23PM 36.2311 -119.6114 181° South 460 529 39,000  Level Oakland Center
11:24PM 36.1036 -119.6131 181° South 459 528 39,000  Level Oakland Center
11:25PM 35.9761 -119.6161 181° South 458 527 39,000  Level Oakland Center
11:26PM 35.8489 -119.6203 182° South 456 525 39,000  Level Oakland Center
11:27PM 35.7222 -119.6253 182° South 455 524 39,000  Level Oakland Center
11:28PM 35.5958 -119.6303 182° South 453 521 39,000  Level Oakland Center
11:29PM 35.4678 -119.6339 181° South 454 522 39,000 -443 Level Oakland Center
11:30PM 35.3425 -119.6386 182° South 453 521 38,100 -1,377 Descending Oakland Center
11:31PM 35.2217 -119.6111 169° South 452 520 36,200 -1,475 Descending Oakland Center
11:32PM 35.0894 -119.5000 145° Southeast 475 547 35,100 -1,805 Descending Oakland Center
11:33PM 34.9792 -119.4042 145° Southeast 479 551 32,500 -2,976 Descending Oakland Center
11:34PM 34.8681 -119.3094 145° Southeast 484 557 29,000 -3,148 Descending Oakland Center
11:36PM 34.7567 -119.2156 145° Southeast 484 557 26,100 -2,779 Descending Oakland Center
11:37PM 34.6217 -119.1025 145° Southeast 476 548 22,700 -2,715 Descending Los Angeles Center
11:38PM 34.5153 -119.0119 145° Southeast 445 512 19,900 -2,565 Descending Los Angeles Center
11:39PM 34.4175 -118.9331 146° Southeast 432 497 17,400 -2,468 Descending Los Angeles Center
11:40PM 34.3161 -118.8669 152° Southeast 414 476 14,800 -2,613 Descending Los Angeles Center
11:41PM 34.1886 -118.8197 163° South 400 460 12,000 -1,854 Descending Los Angeles Center
11:42PM 34.0939 -118.7842 163° South 359 413 11,000 -585 Descending Los Angeles Center
11:43PM 34.0347 -118.7147 136° Southeast 298 343 10,800 -581 Descending Los Angeles Center
11:44PM 34.0258 -118.6211 97° East 278 320 9,800 -1,024 Descending Los Angeles Center
11:45PM 34.0167 -118.5297 97° East 275 316 8,700 -1,024 Descending Los Angeles Center
11:46PM 34.0119 -118.4481 94° East 265 305 7,700 -919 Descending Los Angeles Center
11:47PM 34.0267 -118.3647 78° East 256 295 6,800 -878 Descending Los Angeles Center
11:48PM 34.0389 -118.2892 79° East 237 273 5,900 -1,024 Descending Los Angeles Center
11:49PM 34.0425 -118.2233 86° East 222 255 4,700 -1,306 Descending Los Angeles Center
11:50PM 33.9819 -118.2222 179° South 213 245 3,200 -1,171 Descending Los Angeles Center
11:51PM 33.9644 -118.2769 249° West 189 217 2,300 -976 Descending Los Angeles Center
11:52PM 33.9592 -118.3344 264° West 181 208 1,200 -823 Descending Los Angeles Center
11:53PM 33.9561 -118.3767 265° West 146 168 600 -484 Descending Los Angeles Center
11:54PM 33.9503 -118.4256 262° West 138 159 200 -387 Descending Los Angeles Center
11:56PM 33.9425 -118.4081 90° East  Level Estimated